Terminal Aerodrome Forecast
Issued by NWS Mt. Holly, NJ

Home | Current Version | Previous Version | Text Only | Print | Product List | Glossary On
Versions: 1 2 3 4 5 6 7 8 9 10 11 12 13 14 15 16 17 18 19 20 21 22 23 24 25
000
FTUS41 KPHI 192335
TAFRDG
TAF
KRDG 192335Z 2000/2024 VRB02KT 1/2SM -DZ FG OVC003 WS020/21035KT
     FM201300 VRB03KT 2SM -DZ BR BKN007 WS020/24035KT
     FM201500 VRB03KT P6SM BKN012
     FM201800 22006KT P6SM SCT035=

USA.gov is the U.S. government's official web portal to all federal, state and local government web resources and services.